sensor_id;sensor_type;location;lat;lon;timestamp;P1;durP1;ratioP1;P2;durP2;ratioP2
68940;SDS011;55982;51.476;7.552;2023-07-29T00:01:48;8.13;;;7.32;;
68940;SDS011;55982;51.476;7.552;2023-07-29T00:04:14;8.90;;;8.00;;
68940;SDS011;55982;51.476;7.552;2023-07-29T00:06:39;8.73;;;7.65;;
68940;SDS011;55982;51.476;7.552;2023-07-29T00:09:05;9.00;;;7.28;;
68940;SDS011;55982;51.476;7.552;2023-07-29T00:11:30;9.77;;;7.90;;
68940;SDS011;55982;51.476;7.552;2023-07-29T00:13:58;10.80;;;7.50;;
68940;SDS011;55982;51.476;7.552;2023-07-29T00:16:25;9.93;;;8.30;;
68940;SDS011;55982;51.476;7.552;2023-07-29T00:18:51;8.82;;;7.93;;
68940;SDS011;55982;51.476;7.552;2023-07-29T00:21:16;13.23;;;8.63;;
68940;SDS011;55982;51.476;7.552;2023-07-29T00:23:42;9.52;;;8.52;;
68940;SDS011;55982;51.476;7.552;2023-07-29T00:26:07;11.68;;;9.00;;
68940;SDS011;55982;51.476;7.552;2023-07-29T00:28:32;12.45;;;9.65;;
68940;SDS011;55982;51.476;7.552;2023-07-29T00:30:58;13.25;;;10.27;;
68940;SDS011;55982;51.476;7.552;2023-07-29T00:33:23;10.80;;;9.68;;
68940;SDS011;55982;51.476;7.552;2023-07-29T00:35:49;13.43;;;10.90;;
68940;SDS011;55982;51.476;7.552;2023-07-29T00:38:14;13.85;;;10.57;;
68940;SDS011;55982;51.476;7.552;2023-07-29T00:40:39;15.52;;;11.18;;
68940;SDS011;55982;51.476;7.552;2023-07-29T00:43:05;12.57;;;10.95;;
68940;SDS011;55982;51.476;7.552;2023-07-29T00:45:32;12.93;;;10.80;;
68940;SDS011;55982;51.476;7.552;2023-07-29T00:47:58;14.15;;;11.52;;
68940;SDS011;55982;51.476;7.552;2023-07-29T00:50:28;13.52;;;11.45;;
68940;SDS011;55982;51.476;7.552;2023-07-29T00:52:55;13.23;;;10.32;;
68940;SDS011;55982;51.476;7.552;2023-07-29T00:55:22;11.60;;;10.40;;
68940;SDS011;55982;51.476;7.552;2023-07-29T00:57:47;11.60;;;10.32;;
68940;SDS011;55982;51.476;7.552;2023-07-29T01:00:17;11.82;;;10.57;;
68940;SDS011;55982;51.476;7.552;2023-07-29T01:02:42;13.38;;;10.20;;
68940;SDS011;55982;51.476;7.552;2023-07-29T01:05:08;14.05;;;11.23;;
68940;SDS011;55982;51.476;7.552;2023-07-29T01:10:41;16.75;;;10.68;;
68940;SDS011;55982;51.476;7.552;2023-07-29T01:13:10;13.50;;;10.93;;
68940;SDS011;55982;51.476;7.552;2023-07-29T01:15:43;11.35;;;9.82;;
68940;SDS011;55982;51.476;7.552;2023-07-29T01:18:23;11.98;;;10.15;;
68940;SDS011;55982;51.476;7.552;2023-07-29T01:20:53;12.13;;;9.60;;
68940;SDS011;55982;51.476;7.552;2023-07-29T01:23:23;12.20;;;9.40;;
68940;SDS011;55982;51.476;7.552;2023-07-29T01:25:49;10.40;;;9.30;;
68940;SDS011;55982;51.476;7.552;2023-07-29T01:28:14;10.50;;;9.32;;
68940;SDS011;55982;51.476;7.552;2023-07-29T01:30:40;9.35;;;8.45;;
68940;SDS011;55982;51.476;7.552;2023-07-29T01:33:16;13.15;;;8.75;;
68940;SDS011;55982;51.476;7.552;2023-07-29T01:35:46;10.50;;;8.30;;
68940;SDS011;55982;51.476;7.552;2023-07-29T01:38:24;8.43;;;7.63;;
68940;SDS011;55982;51.476;7.552;2023-07-29T01:40:56;8.70;;;7.47;;
68940;SDS011;55982;51.476;7.552;2023-07-29T01:43:24;9.98;;;7.97;;
68940;SDS011;55982;51.476;7.552;2023-07-29T01:45:50;8.07;;;7.28;;
68940;SDS011;55982;51.476;7.552;2023-07-29T01:48:16;8.30;;;7.20;;
68940;SDS011;55982;51.476;7.552;2023-07-29T01:50:42;8.27;;;7.05;;
68940;SDS011;55982;51.476;7.552;2023-07-29T01:53:07;7.80;;;7.00;;
68940;SDS011;55982;51.476;7.552;2023-07-29T01:55:33;8.38;;;7.07;;
68940;SDS011;55982;51.476;7.552;2023-07-29T01:57:59;7.57;;;6.72;;
68940;SDS011;55982;51.476;7.552;2023-07-29T02:00:24;7.82;;;6.82;;
68940;SDS011;55982;51.476;7.552;2023-07-29T02:02:49;8.73;;;7.65;;
68940;SDS011;55982;51.476;7.552;2023-07-29T02:05:15;8.05;;;7.05;;
68940;SDS011;55982;51.476;7.552;2023-07-29T02:07:40;7.97;;;6.95;;
68940;SDS011;55982;51.476;7.552;2023-07-29T02:10:06;8.50;;;7.07;;
68940;SDS011;55982;51.476;7.552;2023-07-29T02:12:32;8.05;;;6.70;;
68940;SDS011;55982;51.476;7.552;2023-07-29T02:14:58;7.47;;;6.78;;
68940;SDS011;55982;51.476;7.552;2023-07-29T02:17:23;10.27;;;7.35;;
68940;SDS011;55982;51.476;7.552;2023-07-29T02:19:48;9.75;;;7.32;;
68940;SDS011;55982;51.476;7.552;2023-07-29T02:22:14;8.10;;;6.88;;
68940;SDS011;55982;51.476;7.552;2023-07-29T02:24:42;10.50;;;7.47;;
68940;SDS011;55982;51.476;7.552;2023-07-29T02:27:08;7.97;;;7.18;;
68940;SDS011;55982;51.476;7.552;2023-07-29T02:29:33;7.18;;;6.47;;
68940;SDS011;55982;51.476;7.552;2023-07-29T02:32:02;9.63;;;7.85;;
68940;SDS011;55982;51.476;7.552;2023-07-29T02:34:27;11.13;;;7.10;;
68940;SDS011;55982;51.476;7.552;2023-07-29T02:36:53;12.48;;;7.05;;
68940;SDS011;55982;51.476;7.552;2023-07-29T02:39:18;7.15;;;6.45;;
68940;SDS011;55982;51.476;7.552;2023-07-29T02:41:44;9.02;;;6.95;;
68940;SDS011;55982;51.476;7.552;2023-07-29T02:44:09;9.40;;;7.72;;
68940;SDS011;55982;51.476;7.552;2023-07-29T02:46:34;8.80;;;7.10;;
68940;SDS011;55982;51.476;7.552;2023-07-29T02:49:01;7.47;;;6.78;;
68940;SDS011;55982;51.476;7.552;2023-07-29T02:51:27;9.05;;;6.85;;
68940;SDS011;55982;51.476;7.552;2023-07-29T02:53:53;7.43;;;6.68;;
68940;SDS011;55982;51.476;7.552;2023-07-29T02:56:18;8.50;;;6.93;;
68940;SDS011;55982;51.476;7.552;2023-07-29T02:58:43;8.20;;;7.40;;
68940;SDS011;55982;51.476;7.552;2023-07-29T03:01:09;9.57;;;7.15;;
68940;SDS011;55982;51.476;7.552;2023-07-29T03:03:34;7.72;;;6.72;;
68940;SDS011;55982;51.476;7.552;2023-07-29T03:06:01;8.85;;;6.78;;
68940;SDS011;55982;51.476;7.552;2023-07-29T03:08:27;7.47;;;6.78;;
68940;SDS011;55982;51.476;7.552;2023-07-29T03:10:53;10.32;;;7.60;;
68940;SDS011;55982;51.476;7.552;2023-07-29T03:13:19;7.75;;;6.95;;
68940;SDS011;55982;51.476;7.552;2023-07-29T03:15:44;7.43;;;6.72;;
68940;SDS011;55982;51.476;7.552;2023-07-29T03:18:10;8.80;;;7.18;;
68940;SDS011;55982;51.476;7.552;2023-07-29T03:20:35;9.18;;;7.40;;
68940;SDS011;55982;51.476;7.552;2023-07-29T03:23:00;7.68;;;6.88;;
68940;SDS011;55982;51.476;7.552;2023-07-29T03:25:28;9.68;;;6.68;;
68940;SDS011;55982;51.476;7.552;2023-07-29T03:27:54;10.63;;;7.18;;
68940;SDS011;55982;51.476;7.552;2023-07-29T03:30:20;13.13;;;7.70;;
68940;SDS011;55982;51.476;7.552;2023-07-29T03:32:46;11.80;;;8.80;;
68940;SDS011;55982;51.476;7.552;2023-07-29T03:35:12;11.95;;;9.95;;
68940;SDS011;55982;51.476;7.552;2023-07-29T03:37:38;12.13;;;10.07;;
68940;SDS011;55982;51.476;7.552;2023-07-29T03:40:04;14.10;;;10.93;;
68940;SDS011;55982;51.476;7.552;2023-07-29T03:42:30;13.95;;;11.27;;
68940;SDS011;55982;51.476;7.552;2023-07-29T03:44:58;12.00;;;10.55;;
68940;SDS011;55982;51.476;7.552;2023-07-29T03:47:24;11.23;;;9.82;;
68940;SDS011;55982;51.476;7.552;2023-07-29T03:49:49;16.00;;;12.57;;
68940;SDS011;55982;51.476;7.552;2023-07-29T03:52:15;13.50;;;11.02;;
68940;SDS011;55982;51.476;7.552;2023-07-29T03:54:40;13.40;;;10.95;;
68940;SDS011;55982;51.476;7.552;2023-07-29T03:57:05;14.07;;;11.02;;
68940;SDS011;55982;51.476;7.552;2023-07-29T03:59:31;12.38;;;11.07;;
68940;SDS011;55982;51.476;7.552;2023-07-29T04:01:56;16.30;;;12.55;;
68940;SDS011;55982;51.476;7.552;2023-07-29T04:04:21;13.77;;;12.00;;
68940;SDS011;55982;51.476;7.552;2023-07-29T04:06:47;17.48;;;11.80;;
68940;SDS011;55982;51.476;7.552;2023-07-29T04:09:12;13.00;;;11.20;;
68940;SDS011;55982;51.476;7.552;2023-07-29T04:11:38;14.60;;;11.63;;
68940;SDS011;55982;51.476;7.552;2023-07-29T04:14:03;14.80;;;11.70;;
68940;SDS011;55982;51.476;7.552;2023-07-29T04:16:29;14.18;;;10.68;;
68940;SDS011;55982;51.476;7.552;2023-07-29T04:18:54;13.30;;;10.75;;
68940;SDS011;55982;51.476;7.552;2023-07-29T04:21:19;13.25;;;10.63;;
68940;SDS011;55982;51.476;7.552;2023-07-29T04:23:45;14.80;;;11.15;;
68940;SDS011;55982;51.476;7.552;2023-07-29T04:26:10;12.73;;;11.13;;
68940;SDS011;55982;51.476;7.552;2023-07-29T04:28:36;17.10;;;11.20;;
68940;SDS011;55982;51.476;7.552;2023-07-29T04:31:01;16.35;;;10.70;;
68940;SDS011;55982;51.476;7.552;2023-07-29T04:33:27;12.50;;;9.77;;
68940;SDS011;55982;51.476;7.552;2023-07-29T04:35:54;11.18;;;9.98;;
68940;SDS011;55982;51.476;7.552;2023-07-29T04:38:19;13.18;;;10.95;;
68940;SDS011;55982;51.476;7.552;2023-07-29T04:40:45;12.57;;;10.48;;
68940;SDS011;55982;51.476;7.552;2023-07-29T04:43:10;11.77;;;9.80;;
68940;SDS011;55982;51.476;7.552;2023-07-29T04:45:36;11.90;;;10.18;;
68940;SDS011;55982;51.476;7.552;2023-07-29T04:48:06;10.88;;;9.60;;
68940;SDS011;55982;51.476;7.552;2023-07-29T04:50:32;14.00;;;10.68;;
68940;SDS011;55982;51.476;7.552;2023-07-29T04:52:57;13.13;;;11.05;;
68940;SDS011;55982;51.476;7.552;2023-07-29T04:55:22;15.25;;;11.38;;
68940;SDS011;55982;51.476;7.552;2023-07-29T04:57:48;13.55;;;11.35;;
68940;SDS011;55982;51.476;7.552;2023-07-29T05:00:13;17.90;;;12.50;;
68940;SDS011;55982;51.476;7.552;2023-07-29T05:02:39;15.73;;;13.05;;
68940;SDS011;55982;51.476;7.552;2023-07-29T05:05:04;20.38;;;12.90;;
68940;SDS011;55982;51.476;7.552;2023-07-29T05:07:30;16.85;;;13.40;;
68940;SDS011;55982;51.476;7.552;2023-07-29T05:09:55;14.30;;;12.73;;
68940;SDS011;55982;51.476;7.552;2023-07-29T05:12:20;14.68;;;13.00;;
68940;SDS011;55982;51.476;7.552;2023-07-29T05:14:46;16.70;;;13.35;;
68940;SDS011;55982;51.476;7.552;2023-07-29T05:17:11;15.68;;;13.85;;
68940;SDS011;55982;51.476;7.552;2023-07-29T05:19:36;20.48;;;13.77;;
68940;SDS011;55982;51.476;7.552;2023-07-29T05:22:02;15.73;;;13.63;;
68940;SDS011;55982;51.476;7.552;2023-07-29T05:24:27;18.40;;;14.23;;
68940;SDS011;55982;51.476;7.552;2023-07-29T05:26:53;17.17;;;13.90;;
68940;SDS011;55982;51.476;7.552;2023-07-29T05:29:18;19.85;;;14.40;;
68940;SDS011;55982;51.476;7.552;2023-07-29T05:31:43;16.85;;;14.13;;
68940;SDS011;55982;51.476;7.552;2023-07-29T05:34:09;18.83;;;15.25;;
68940;SDS011;55982;51.476;7.552;2023-07-29T05:36:34;19.58;;;14.88;;
68940;SDS011;55982;51.476;7.552;2023-07-29T05:38:59;19.98;;;15.25;;
68940;SDS011;55982;51.476;7.552;2023-07-29T05:41:25;20.58;;;15.93;;
68940;SDS011;55982;51.476;7.552;2023-07-29T05:43:53;23.33;;;16.30;;
68940;SDS011;55982;51.476;7.552;2023-07-29T05:46:18;21.60;;;15.95;;
68940;SDS011;55982;51.476;7.552;2023-07-29T05:48:43;20.48;;;14.68;;
68940;SDS011;55982;51.476;7.552;2023-07-29T05:51:09;18.50;;;13.82;;
68940;SDS011;55982;51.476;7.552;2023-07-29T05:53:34;15.88;;;12.85;;
68940;SDS011;55982;51.476;7.552;2023-07-29T05:55:59;16.92;;;12.70;;
68940;SDS011;55982;51.476;7.552;2023-07-29T05:58:25;16.35;;;13.05;;
68940;SDS011;55982;51.476;7.552;2023-07-29T06:00:50;18.65;;;13.57;;
68940;SDS011;55982;51.476;7.552;2023-07-29T06:03:16;19.50;;;14.23;;
68940;SDS011;55982;51.476;7.552;2023-07-29T06:05:41;20.10;;;15.13;;
68940;SDS011;55982;51.476;7.552;2023-07-29T06:08:07;20.80;;;14.85;;
68940;SDS011;55982;51.476;7.552;2023-07-29T06:10:34;20.92;;;15.38;;
68940;SDS011;55982;51.476;7.552;2023-07-29T06:12:59;22.90;;;16.65;;
68940;SDS011;55982;51.476;7.552;2023-07-29T06:15:24;24.15;;;16.15;;
68940;SDS011;55982;51.476;7.552;2023-07-29T06:17:50;21.42;;;15.15;;
68940;SDS011;55982;51.476;7.552;2023-07-29T06:20:15;23.33;;;17.15;;
68940;SDS011;55982;51.476;7.552;2023-07-29T06:22:40;24.40;;;17.38;;
68940;SDS011;55982;51.476;7.552;2023-07-29T06:25:06;29.25;;;17.80;;
68940;SDS011;55982;51.476;7.552;2023-07-29T06:27:31;28.33;;;18.77;;
68940;SDS011;55982;51.476;7.552;2023-07-29T06:29:57;26.27;;;18.88;;
68940;SDS011;55982;51.476;7.552;2023-07-29T06:32:22;25.38;;;16.75;;
68940;SDS011;55982;51.476;7.552;2023-07-29T06:34:48;28.25;;;17.67;;
68940;SDS011;55982;51.476;7.552;2023-07-29T06:37:13;23.98;;;15.98;;
68940;SDS011;55982;51.476;7.552;2023-07-29T06:39:38;24.65;;;16.90;;
68940;SDS011;55982;51.476;7.552;2023-07-29T06:42:04;24.70;;;16.50;;
68940;SDS011;55982;51.476;7.552;2023-07-29T06:44:29;23.38;;;15.73;;
68940;SDS011;55982;51.476;7.552;2023-07-29T06:46:55;21.80;;;15.35;;
68940;SDS011;55982;51.476;7.552;2023-07-29T06:49:20;21.80;;;16.02;;
68940;SDS011;55982;51.476;7.552;2023-07-29T06:51:45;23.65;;;17.00;;
68940;SDS011;55982;51.476;7.552;2023-07-29T06:54:10;22.48;;;15.43;;
68940;SDS011;55982;51.476;7.552;2023-07-29T06:56:36;18.60;;;12.77;;
68940;SDS011;55982;51.476;7.552;2023-07-29T06:59:02;13.98;;;9.30;;
68940;SDS011;55982;51.476;7.552;2023-07-29T07:01:27;10.43;;;8.38;;
68940;SDS011;55982;51.476;7.552;2023-07-29T07:03:52;8.98;;;7.53;;
68940;SDS011;55982;51.476;7.552;2023-07-29T07:06:20;8.57;;;6.22;;
68940;SDS011;55982;51.476;7.552;2023-07-29T07:08:47;8.13;;;6.40;;
68940;SDS011;55982;51.476;7.552;2023-07-29T07:11:12;9.48;;;5.20;;
68940;SDS011;55982;51.476;7.552;2023-07-29T07:13:38;7.70;;;5.03;;
68940;SDS011;55982;51.476;7.552;2023-07-29T07:16:04;7.07;;;5.22;;
68940;SDS011;55982;51.476;7.552;2023-07-29T07:18:29;6.43;;;4.45;;
68940;SDS011;55982;51.476;7.552;2023-07-29T07:20:55;5.95;;;4.85;;
68940;SDS011;55982;51.476;7.552;2023-07-29T07:23:20;6.15;;;4.40;;
68940;SDS011;55982;51.476;7.552;2023-07-29T07:25:46;6.95;;;4.47;;
68940;SDS011;55982;51.476;7.552;2023-07-29T07:28:11;6.15;;;4.32;;
68940;SDS011;55982;51.476;7.552;2023-07-29T07:30:40;7.85;;;4.38;;
68940;SDS011;55982;51.476;7.552;2023-07-29T07:33:08;5.78;;;4.00;;
68940;SDS011;55982;51.476;7.552;2023-07-29T07:35:34;4.65;;;3.90;;
68940;SDS011;55982;51.476;7.552;2023-07-29T07:37:59;6.82;;;3.78;;
68940;SDS011;55982;51.476;7.552;2023-07-29T07:40:27;7.78;;;3.72;;
68940;SDS011;55982;51.476;7.552;2023-07-29T07:42:52;5.72;;;3.08;;
68940;SDS011;55982;51.476;7.552;2023-07-29T07:45:18;6.75;;;3.28;;
68940;SDS011;55982;51.476;7.552;2023-07-29T07:47:43;5.22;;;3.30;;
68940;SDS011;55982;51.476;7.552;2023-07-29T07:50:08;6.32;;;3.28;;
68940;SDS011;55982;51.476;7.552;2023-07-29T07:52:34;4.50;;;2.92;;
68940;SDS011;55982;51.476;7.552;2023-07-29T07:55:00;3.78;;;2.47;;
68940;SDS011;55982;51.476;7.552;2023-07-29T07:57:25;4.22;;;2.75;;
68940;SDS011;55982;51.476;7.552;2023-07-29T07:59:51;2.88;;;2.20;;
68940;SDS011;55982;51.476;7.552;2023-07-29T08:02:17;4.00;;;2.25;;
68940;SDS011;55982;51.476;7.552;2023-07-29T08:04:43;3.38;;;2.20;;
68940;SDS011;55982;51.476;7.552;2023-07-29T08:07:08;3.95;;;1.75;;
68940;SDS011;55982;51.476;7.552;2023-07-29T08:09:34;3.63;;;1.95;;
68940;SDS011;55982;51.476;7.552;2023-07-29T08:11:59;4.88;;;1.90;;
68940;SDS011;55982;51.476;7.552;2023-07-29T08:14:24;3.25;;;1.90;;
68940;SDS011;55982;51.476;7.552;2023-07-29T08:16:51;3.10;;;2.00;;
68940;SDS011;55982;51.476;7.552;2023-07-29T08:19:16;2.58;;;1.70;;
68940;SDS011;55982;51.476;7.552;2023-07-29T08:21:43;1.80;;;1.63;;
68940;SDS011;55982;51.476;7.552;2023-07-29T08:24:08;2.70;;;1.50;;
68940;SDS011;55982;51.476;7.552;2023-07-29T08:26:34;2.47;;;1.20;;
68940;SDS011;55982;51.476;7.552;2023-07-29T08:28:59;1.65;;;1.25;;
68940;SDS011;55982;51.476;7.552;2023-07-29T08:31:24;1.85;;;1.45;;
68940;SDS011;55982;51.476;7.552;2023-07-29T08:33:50;1.60;;;1.50;;
68940;SDS011;55982;51.476;7.552;2023-07-29T08:36:15;1.58;;;1.48;;
68940;SDS011;55982;51.476;7.552;2023-07-29T08:38:41;1.65;;;1.40;;
68940;SDS011;55982;51.476;7.552;2023-07-29T08:43:59;1.63;;;1.20;;
68940;SDS011;55982;51.476;7.552;2023-07-29T08:46:31;1.98;;;1.50;;
68940;SDS011;55982;51.476;7.552;2023-07-29T08:48:57;2.28;;;1.42;;
68940;SDS011;55982;51.476;7.552;2023-07-29T08:51:24;1.67;;;1.30;;
68940;SDS011;55982;51.476;7.552;2023-07-29T08:53:51;2.03;;;1.60;;
68940;SDS011;55982;51.476;7.552;2023-07-29T08:56:16;5.38;;;1.80;;
68940;SDS011;55982;51.476;7.552;2023-07-29T08:58:42;3.30;;;1.20;;
68940;SDS011;55982;51.476;7.552;2023-07-29T09:01:08;2.20;;;1.25;;
68940;SDS011;55982;51.476;7.552;2023-07-29T09:03:33;1.73;;;1.25;;
68940;SDS011;55982;51.476;7.552;2023-07-29T09:05:59;1.45;;;1.10;;
68940;SDS011;55982;51.476;7.552;2023-07-29T09:08:27;3.40;;;1.08;;
68940;SDS011;55982;51.476;7.552;2023-07-29T09:10:53;2.67;;;1.10;;
68940;SDS011;55982;51.476;7.552;2023-07-29T09:13:19;1.33;;;1.00;;
68940;SDS011;55982;51.476;7.552;2023-07-29T09:15:45;0.98;;;0.80;;
68940;SDS011;55982;51.476;7.552;2023-07-29T09:18:11;1.45;;;1.00;;
68940;SDS011;55982;51.476;7.552;2023-07-29T09:20:40;1.85;;;0.80;;
68940;SDS011;55982;51.476;7.552;2023-07-29T09:23:07;1.13;;;1.00;;
68940;SDS011;55982;51.476;7.552;2023-07-29T09:25:37;1.70;;;1.10;;
68940;SDS011;55982;51.476;7.552;2023-07-29T09:28:09;1.75;;;1.02;;
68940;SDS011;55982;51.476;7.552;2023-07-29T09:30:39;1.35;;;0.95;;
68940;SDS011;55982;51.476;7.552;2023-07-29T09:33:06;1.05;;;0.90;;
68940;SDS011;55982;51.476;7.552;2023-07-29T09:35:32;2.33;;;1.10;;
68940;SDS011;55982;51.476;7.552;2023-07-29T09:37:59;2.15;;;1.50;;
68940;SDS011;55982;51.476;7.552;2023-07-29T09:40:25;2.30;;;1.73;;
68940;SDS011;55982;51.476;7.552;2023-07-29T09:42:51;1.38;;;1.20;;
68940;SDS011;55982;51.476;7.552;2023-07-29T09:45:21;2.08;;;1.00;;
68940;SDS011;55982;51.476;7.552;2023-07-29T09:47:46;1.35;;;0.90;;
68940;SDS011;55982;51.476;7.552;2023-07-29T09:50:12;3.47;;;1.23;;
68940;SDS011;55982;51.476;7.552;2023-07-29T09:52:37;0.90;;;0.85;;
68940;SDS011;55982;51.476;7.552;2023-07-29T09:55:03;2.17;;;0.88;;
68940;SDS011;55982;51.476;7.552;2023-07-29T09:57:28;2.08;;;1.02;;
68940;SDS011;55982;51.476;7.552;2023-07-29T09:59:55;1.20;;;1.10;;
68940;SDS011;55982;51.476;7.552;2023-07-29T10:02:22;1.55;;;0.95;;
68940;SDS011;55982;51.476;7.552;2023-07-29T10:04:47;0.80;;;0.80;;
68940;SDS011;55982;51.476;7.552;2023-07-29T10:07:14;0.95;;;0.90;;
68940;SDS011;55982;51.476;7.552;2023-07-29T10:09:40;1.38;;;0.80;;
68940;SDS011;55982;51.476;7.552;2023-07-29T10:12:07;2.58;;;0.90;;
68940;SDS011;55982;51.476;7.552;2023-07-29T10:14:34;1.65;;;1.10;;
68940;SDS011;55982;51.476;7.552;2023-07-29T10:17:01;1.10;;;1.05;;
68940;SDS011;55982;51.476;7.552;2023-07-29T10:19:28;1.58;;;1.42;;
68940;SDS011;55982;51.476;7.552;2023-07-29T10:21:56;1.17;;;0.90;;
68940;SDS011;55982;51.476;7.552;2023-07-29T10:24:25;1.63;;;1.08;;
68940;SDS011;55982;51.476;7.552;2023-07-29T10:26:59;4.13;;;1.05;;
68940;SDS011;55982;51.476;7.552;2023-07-29T10:29:28;1.85;;;1.38;;
68940;SDS011;55982;51.476;7.552;2023-07-29T10:32:01;2.20;;;1.00;;
68940;SDS011;55982;51.476;7.552;2023-07-29T10:34:29;2.22;;;1.23;;
68940;SDS011;55982;51.476;7.552;2023-07-29T10:36:56;2.85;;;1.40;;
68940;SDS011;55982;51.476;7.552;2023-07-29T10:39:24;1.85;;;1.55;;
68940;SDS011;55982;51.476;7.552;2023-07-29T10:41:56;1.40;;;1.27;;
68940;SDS011;55982;51.476;7.552;2023-07-29T10:49:53;1.90;;;1.60;;
68940;SDS011;55982;51.476;7.552;2023-07-29T10:54:54;1.67;;;1.30;;
68940;SDS011;55982;51.476;7.552;2023-07-29T10:57:32;1.60;;;1.50;;
68940;SDS011;55982;51.476;7.552;2023-07-29T10:59:59;1.70;;;1.60;;
68940;SDS011;55982;51.476;7.552;2023-07-29T11:02:32;3.65;;;1.45;;
68940;SDS011;55982;51.476;7.552;2023-07-29T11:05:00;1.45;;;1.35;;
68940;SDS011;55982;51.476;7.552;2023-07-29T11:07:31;4.05;;;1.23;;
68940;SDS011;55982;51.476;7.552;2023-07-29T11:10:03;2.65;;;1.10;;
68940;SDS011;55982;51.476;7.552;2023-07-29T11:17:58;1.33;;;1.23;;
68940;SDS011;55982;51.476;7.552;2023-07-29T11:20:30;1.30;;;1.20;;
68940;SDS011;55982;51.476;7.552;2023-07-29T11:22:57;1.20;;;1.10;;
68940;SDS011;55982;51.476;7.552;2023-07-29T11:25:24;1.38;;;1.20;;
68940;SDS011;55982;51.476;7.552;2023-07-29T11:27:52;1.30;;;1.20;;
68940;SDS011;55982;51.476;7.552;2023-07-29T11:30:18;1.48;;;1.38;;
68940;SDS011;55982;51.476;7.552;2023-07-29T11:32:44;1.83;;;1.38;;
68940;SDS011;55982;51.476;7.552;2023-07-29T11:35:14;1.67;;;1.15;;
68940;SDS011;55982;51.476;7.552;2023-07-29T11:37:43;2.25;;;1.30;;
68940;SDS011;55982;51.476;7.552;2023-07-29T11:40:09;1.17;;;1.08;;
68940;SDS011;55982;51.476;7.552;2023-07-29T11:42:38;5.40;;;0.98;;
68940;SDS011;55982;51.476;7.552;2023-07-29T11:45:04;3.78;;;1.10;;
68940;SDS011;55982;51.476;7.552;2023-07-29T11:47:33;1.10;;;0.95;;
68940;SDS011;55982;51.476;7.552;2023-07-29T11:50:05;2.30;;;1.00;;
68940;SDS011;55982;51.476;7.552;2023-07-29T11:52:32;1.00;;;0.90;;
68940;SDS011;55982;51.476;7.552;2023-07-29T11:54:59;0.80;;;0.80;;
68940;SDS011;55982;51.476;7.552;2023-07-29T11:57:25;1.20;;;1.10;;
68940;SDS011;55982;51.476;7.552;2023-07-29T11:59:51;2.58;;;1.23;;
68940;SDS011;55982;51.476;7.552;2023-07-29T12:02:18;1.13;;;1.02;;
68940;SDS011;55982;51.476;7.552;2023-07-29T12:04:46;2.15;;;1.05;;
68940;SDS011;55982;51.476;7.552;2023-07-29T12:07:12;3.63;;;1.20;;
68940;SDS011;55982;51.476;7.552;2023-07-29T12:09:39;2.08;;;1.20;;
68940;SDS011;55982;51.476;7.552;2023-07-29T12:12:05;3.17;;;1.10;;
68940;SDS011;55982;51.476;7.552;2023-07-29T12:14:31;1.10;;;1.00;;
68940;SDS011;55982;51.476;7.552;2023-07-29T12:17:01;1.73;;;0.82;;
68940;SDS011;55982;51.476;7.552;2023-07-29T12:19:34;1.30;;;1.08;;
68940;SDS011;55982;51.476;7.552;2023-07-29T12:22:04;2.13;;;1.08;;
68940;SDS011;55982;51.476;7.552;2023-07-29T12:24:31;1.83;;;1.25;;
68940;SDS011;55982;51.476;7.552;2023-07-29T12:26:58;1.85;;;1.00;;
68940;SDS011;55982;51.476;7.552;2023-07-29T12:29:24;4.35;;;1.20;;
68940;SDS011;55982;51.476;7.552;2023-07-29T12:31:56;2.58;;;1.10;;
68940;SDS011;55982;51.476;7.552;2023-07-29T12:34:24;2.00;;;1.30;;
68940;SDS011;55982;51.476;7.552;2023-07-29T12:36:50;1.55;;;1.30;;
68940;SDS011;55982;51.476;7.552;2023-07-29T12:39:20;2.92;;;1.27;;
68940;SDS011;55982;51.476;7.552;2023-07-29T12:41:57;2.03;;;1.05;;
68940;SDS011;55982;51.476;7.552;2023-07-29T12:44:24;1.65;;;1.30;;
68940;SDS011;55982;51.476;7.552;2023-07-29T12:46:50;1.40;;;1.10;;
68940;SDS011;55982;51.476;7.552;2023-07-29T12:49:17;2.88;;;1.48;;
68940;SDS011;55982;51.476;7.552;2023-07-29T12:51:42;1.67;;;0.93;;
68940;SDS011;55982;51.476;7.552;2023-07-29T12:54:08;1.98;;;1.10;;
68940;SDS011;55982;51.476;7.552;2023-07-29T12:56:34;1.20;;;1.10;;
68940;SDS011;55982;51.476;7.552;2023-07-29T12:58:59;2.47;;;1.30;;
68940;SDS011;55982;51.476;7.552;2023-07-29T13:01:25;2.22;;;1.20;;
68940;SDS011;55982;51.476;7.552;2023-07-29T13:03:52;1.23;;;1.05;;
68940;SDS011;55982;51.476;7.552;2023-07-29T13:06:17;1.80;;;1.10;;
68940;SDS011;55982;51.476;7.552;2023-07-29T13:08:43;2.40;;;1.50;;
68940;SDS011;55982;51.476;7.552;2023-07-29T13:11:09;1.95;;;1.40;;
68940;SDS011;55982;51.476;7.552;2023-07-29T13:13:35;1.50;;;1.40;;
68940;SDS011;55982;51.476;7.552;2023-07-29T13:16:00;1.60;;;1.45;;
68940;SDS011;55982;51.476;7.552;2023-07-29T13:18:26;2.40;;;1.20;;
68940;SDS011;55982;51.476;7.552;2023-07-29T13:20:51;3.17;;;1.50;;
68940;SDS011;55982;51.476;7.552;2023-07-29T13:23:17;2.65;;;1.42;;
68940;SDS011;55982;51.476;7.552;2023-07-29T13:25:42;1.75;;;1.30;;
68940;SDS011;55982;51.476;7.552;2023-07-29T13:28:10;1.23;;;1.10;;
68940;SDS011;55982;51.476;7.552;2023-07-29T13:30:36;1.40;;;1.30;;
68940;SDS011;55982;51.476;7.552;2023-07-29T13:33:01;2.80;;;1.40;;
68940;SDS011;55982;51.476;7.552;2023-07-29T13:35:27;4.35;;;1.55;;
68940;SDS011;55982;51.476;7.552;2023-07-29T13:37:53;2.58;;;1.38;;
68940;SDS011;55982;51.476;7.552;2023-07-29T13:40:18;1.40;;;1.30;;
68940;SDS011;55982;51.476;7.552;2023-07-29T13:42:44;2.05;;;1.35;;
68940;SDS011;55982;51.476;7.552;2023-07-29T13:45:09;3.22;;;1.70;;
68940;SDS011;55982;51.476;7.552;2023-07-29T13:47:34;2.92;;;1.45;;
68940;SDS011;55982;51.476;7.552;2023-07-29T13:50:00;4.38;;;1.80;;
68940;SDS011;55982;51.476;7.552;2023-07-29T13:52:26;1.67;;;1.58;;
68940;SDS011;55982;51.476;7.552;2023-07-29T13:54:51;1.52;;;1.42;;
68940;SDS011;55982;51.476;7.552;2023-07-29T13:57:16;1.67;;;1.55;;
68940;SDS011;55982;51.476;7.552;2023-07-29T13:59:42;2.28;;;1.58;;
68940;SDS011;55982;51.476;7.552;2023-07-29T14:02:07;1.88;;;1.58;;
68940;SDS011;55982;51.476;7.552;2023-07-29T14:04:32;4.80;;;1.85;;
68940;SDS011;55982;51.476;7.552;2023-07-29T14:06:58;1.70;;;1.60;;
68940;SDS011;55982;51.476;7.552;2023-07-29T14:09:24;6.97;;;1.90;;
68940;SDS011;55982;51.476;7.552;2023-07-29T14:11:50;2.08;;;1.80;;
68940;SDS011;55982;51.476;7.552;2023-07-29T14:14:15;1.80;;;1.65;;
68940;SDS011;55982;51.476;7.552;2023-07-29T14:16:41;3.35;;;1.75;;
68940;SDS011;55982;51.476;7.552;2023-07-29T14:19:06;1.70;;;1.60;;
68940;SDS011;55982;51.476;7.552;2023-07-29T14:21:32;3.15;;;2.10;;
68940;SDS011;55982;51.476;7.552;2023-07-29T14:23:57;2.00;;;1.85;;
68940;SDS011;55982;51.476;7.552;2023-07-29T14:26:22;2.92;;;2.20;;
68940;SDS011;55982;51.476;7.552;2023-07-29T14:28:48;2.65;;;2.22;;
68940;SDS011;55982;51.476;7.552;2023-07-29T14:31:14;3.53;;;2.00;;
68940;SDS011;55982;51.476;7.552;2023-07-29T14:33:41;3.45;;;2.50;;
68940;SDS011;55982;51.476;7.552;2023-07-29T14:36:07;4.70;;;2.42;;
68940;SDS011;55982;51.476;7.552;2023-07-29T14:38:32;4.50;;;2.30;;
68940;SDS011;55982;51.476;7.552;2023-07-29T14:40:58;3.25;;;2.50;;
68940;SDS011;55982;51.476;7.552;2023-07-29T14:43:23;4.40;;;3.03;;
68940;SDS011;55982;51.476;7.552;2023-07-29T14:45:49;3.05;;;2.72;;
68940;SDS011;55982;51.476;7.552;2023-07-29T14:48:14;5.60;;;4.00;;
68940;SDS011;55982;51.476;7.552;2023-07-29T14:50:39;6.13;;;3.10;;
68940;SDS011;55982;51.476;7.552;2023-07-29T14:53:05;3.22;;;2.85;;
68940;SDS011;55982;51.476;7.552;2023-07-29T14:55:30;4.07;;;2.75;;